createdAt,value
2019-03-01T00:02:31.781Z,87.64
2019-03-01T00:09:20.125Z,87.23
2019-03-01T00:12:25.715Z,86.91
2019-03-01T00:15:29.183Z,86.95
2019-03-01T00:18:32.687Z,86.90
2019-03-01T00:21:45.859Z,87.47
2019-03-01T00:28:20.125Z,87.61
2019-03-01T00:31:42.279Z,87.63
2019-03-01T00:34:57.171Z,87.64
2019-03-01T00:38:15.518Z,87.55
2019-03-01T00:41:31.567Z,87.08
2019-03-01T00:44:13.593Z,87.33
2019-03-01T00:46:58.594Z,87.51
2019-03-01T00:50:15.720Z,87.73
2019-03-01T00:52:36.720Z,87.42
2019-03-01T00:55:05.980Z,87.64
2019-03-01T00:58:04.757Z,87.37
2019-03-01T01:00:37.361Z,87.67
2019-03-01T01:03:11.220Z,87.53
2019-03-01T01:06:35.544Z,87.16
2019-03-01T01:09:11.484Z,86.79
2019-03-01T01:11:41.143Z,87.19
2019-03-01T01:14:10.149Z,87.18
2019-03-01T01:17:04.121Z,87.12
2019-03-01T01:19:53.360Z,86.78
2019-03-01T01:22:33.632Z,86.72
2019-03-01T01:25:46.343Z,86.64
2019-03-01T01:28:07.048Z,86.69
2019-03-01T01:31:40.105Z,86.25
2019-03-01T01:33:39.497Z,86.30
2019-03-01T01:36:17.241Z,86.24
2019-03-01T01:39:16.869Z,86.34
2019-03-01T01:42:04.446Z,86.38
2019-03-01T01:44:39.658Z,85.40
2019-03-01T01:47:29.400Z,86.10
2019-03-01T01:50:12.914Z,86.06
2019-03-01T01:55:54.231Z,85.81
2019-03-01T01:58:21.489Z,86.44
2019-03-01T02:01:04.680Z,86.61
2019-03-01T02:04:10.031Z,86.95
2019-03-01T02:06:37.058Z,86.64
2019-03-01T02:09:18.627Z,86.29
2019-03-01T02:11:50.282Z,86.95
2019-03-01T02:14:52.449Z,87.06
2019-03-01T02:17:30.275Z,87.13
2019-03-01T02:19:59.297Z,87.23
2019-03-01T02:22:28.315Z,86.97
2019-03-01T02:34:00.271Z,87.59
2019-03-01T02:51:36.619Z,87.32
2019-03-01T02:54:25.968Z,87.22
2019-03-01T03:00:40.768Z,86.81
2019-03-01T03:03:08.238Z,86.70
2019-03-01T03:09:56.294Z,86.83
2019-03-01T03:12:50.882Z,86.73
2019-03-01T03:16:31.846Z,86.74
2019-03-01T03:19:28.842Z,86.79
2019-03-01T03:23:19.684Z,87.02
2019-03-01T03:25:07.863Z,86.60
2019-03-01T03:28:10.659Z,84.87
2019-03-01T03:31:35.797Z,85.97
2019-03-01T03:35:17.801Z,85.86
2019-03-01T03:38:03.464Z,85.90
2019-03-01T03:41:06.856Z,85.62
2019-03-01T03:48:39.851Z,84.70
2019-03-01T03:50:30.432Z,85.20
2019-03-01T03:53:09.219Z,82.77
2019-03-01T03:55:36.635Z,83.75
2019-03-01T03:58:31.603Z,83.80
2019-03-01T04:12:06.644Z,83.81
2019-03-01T04:14:38.967Z,84.09
2019-03-01T04:17:13.669Z,83.97
2019-03-01T04:38:40.350Z,83.87
2019-03-01T04:41:13.451Z,83.79
2019-03-01T04:43:46.674Z,83.15
2019-03-01T04:46:28.610Z,83.62
2019-03-01T04:49:07.427Z,83.69
2019-03-01T04:52:10.795Z,83.91
2019-03-01T04:55:15.501Z,84.08
2019-03-01T04:57:58.484Z,84.22
2019-03-01T05:01:03.547Z,84.33
2019-03-01T05:04:22.817Z,83.92
2019-03-01T05:07:21.183Z,83.63
2019-03-01T05:09:44.449Z,83.39
2019-03-01T05:13:02.744Z,83.57
2019-03-01T05:16:19.770Z,83.75
2019-03-01T05:19:11.847Z,83.42
2019-03-01T05:21:33.464Z,83.65
2019-03-01T05:24:09.623Z,82.07
2019-03-01T05:28:19.193Z,83.29
2019-03-01T05:30:42.984Z,83.78
2019-03-01T05:33:34.614Z,83.67
2019-03-01T05:37:10.843Z,83.84
2019-03-01T05:39:58.001Z,83.62
2019-03-01T05:42:46.298Z,83.40
2019-03-01T05:45:22.927Z,83.29
2019-03-01T05:48:51.219Z,83.94
2019-03-01T05:52:21.402Z,83.97
2019-03-01T05:59:10.812Z,83.82
2019-03-01T06:02:19.095Z,83.92
2019-03-01T06:05:29.703Z,84.25
2019-03-01T06:08:41.268Z,84.21
2019-03-01T06:11:50.891Z,82.90
2019-03-01T06:15:32.601Z,84.39
2019-03-01T06:18:41.273Z,83.86
2019-03-01T06:22:12.134Z,84.95
2019-03-01T06:25:40.073Z,84.89
2019-03-01T06:29:20.332Z,85.05
2019-03-01T06:32:51.540Z,85.09
2019-03-01T06:39:54.804Z,85.85
2019-03-01T06:43:13.645Z,83.72
2019-03-01T06:46:22.973Z,85.42
2019-03-01T06:49:37.925Z,85.25
2019-03-01T06:52:07.185Z,85.50
2019-03-01T06:55:43.227Z,85.40
2019-03-01T06:58:27.584Z,85.46
2019-03-01T07:01:13.903Z,83.60
2019-03-01T07:03:43.372Z,84.68
2019-03-01T07:07:05.805Z,85.12
2019-03-01T07:09:51.773Z,84.99
2019-03-01T07:12:55.673Z,84.51
2019-03-01T07:16:05.229Z,84.37
2019-03-01T07:22:13.753Z,84.67
2019-03-01T07:28:48.461Z,85.22
2019-03-01T07:32:17.651Z,85.28
2019-03-01T07:35:00.044Z,85.69
2019-03-01T07:38:08.735Z,86.23
2019-03-01T07:41:05.694Z,86.14
2019-03-01T07:43:31.087Z,86.42
2019-03-01T07:46:52.643Z,86.39
2019-03-01T07:50:26.077Z,85.56
2019-03-01T07:54:08.602Z,85.52
2019-03-01T07:56:45.775Z,86.14
2019-03-01T07:59:47.623Z,86.48
2019-03-01T08:06:06.772Z,85.34
2019-03-01T08:13:03.962Z,84.15
2019-03-01T08:17:10.266Z,84.42
2019-03-01T08:23:58.462Z,84.96
2019-03-01T08:26:11.364Z,84.30
2019-03-01T08:33:02.581Z,85.01
2019-03-01T09:11:58.333Z,82.48
2019-03-01T09:14:28.250Z,81.99
2019-03-01T09:33:45.695Z,81.53
2019-03-01T09:36:39.976Z,81.46
2019-03-01T09:39:50.440Z,81.40
2019-03-01T09:54:38.791Z,81.20
2019-03-01T10:05:15.426Z,79.63
2019-03-01T10:09:08.656Z,79.39
2019-03-01T10:12:16.017Z,78.67
2019-03-01T10:14:45.982Z,79.25
2019-03-01T10:21:04.245Z,78.03
2019-03-01T10:24:45.535Z,78.67
2019-03-01T10:27:14.436Z,79.32
2019-03-01T10:31:15.076Z,79.67
2019-03-01T10:37:20.258Z,79.16
2019-03-01T10:39:55.339Z,78.62
2019-03-01T10:43:38.789Z,78.95
2019-03-01T10:46:38.312Z,78.89
2019-03-01T10:49:07.444Z,78.66
2019-03-01T10:52:31.410Z,78.84
2019-03-01T10:59:07.441Z,79.64
2019-03-01T11:02:15.461Z,78.88
2019-03-01T11:05:53.081Z,78.29
2019-03-01T11:08:39.681Z,77.79
2019-03-01T11:11:09.049Z,77.83
2019-03-01T11:13:41.345Z,78.13
2019-03-01T11:20:10.174Z,77.27
2019-03-01T11:22:42.134Z,77.27
2019-03-01T11:29:01.863Z,75.86
2019-03-01T11:32:00.566Z,75.90
2019-03-01T11:41:24.724Z,74.79
2019-03-01T11:46:57.415Z,75.00
2019-03-01T11:49:29.739Z,75.32
2019-03-01T11:52:49.088Z,75.17
2019-03-01T11:55:46.077Z,75.06
2019-03-01T11:59:04.242Z,74.89
2019-03-01T12:01:28.403Z,73.98
2019-03-01T12:04:31.241Z,73.39
2019-03-01T12:07:42.249Z,73.72
2019-03-01T12:10:22.779Z,73.40
2019-03-01T12:12:51.892Z,73.55
2019-03-01T12:15:26.423Z,73.68
2019-03-01T12:29:14.358Z,73.31
2019-03-01T12:35:22.006Z,73.75
2019-03-01T12:37:54.226Z,73.50
2019-03-01T12:40:24.757Z,73.44
2019-03-01T12:43:01.260Z,73.79
2019-03-01T12:45:47.587Z,72.86
2019-03-01T12:48:16.758Z,71.93
2019-03-01T12:50:45.906Z,70.82
2019-03-01T12:53:15.075Z,70.17
2019-03-01T12:55:44.267Z,71.16
2019-03-01T12:58:28.837Z,70.63
2019-03-01T13:00:57.977Z,70.36
2019-03-01T13:04:07.623Z,70.26
2019-03-01T13:07:13.170Z,69.80
2019-03-01T13:09:42.114Z,68.59
2019-03-01T13:12:39.157Z,68.98
2019-03-01T13:15:10.704Z,69.49
2019-03-01T13:17:42.087Z,69.49
2019-03-01T13:20:18.178Z,69.42
2019-03-01T13:27:22.456Z,68.65
2019-03-01T13:30:49.068Z,67.88
2019-03-01T13:34:36.886Z,67.57
2019-03-01T13:37:14.423Z,67.03
2019-03-01T13:39:45.004Z,67.89
2019-03-01T13:50:05.444Z,67.67
2019-03-01T13:55:46.711Z,67.91
2019-03-01T13:59:02.877Z,68.88
2019-03-01T14:01:48.030Z,69.85
2019-03-01T14:04:40.225Z,68.97
2019-03-01T14:07:10.323Z,69.95
2019-03-01T14:10:18.169Z,70.37
2019-03-01T14:12:47.259Z,70.91
2019-03-01T14:15:43.262Z,70.40
2019-03-01T14:18:45.394Z,70.22
2019-03-01T14:21:59.892Z,70.30
2019-03-01T14:24:56.162Z,69.69
2019-03-01T14:27:48.617Z,68.87
2019-03-01T14:30:51.920Z,66.10
2019-03-01T14:33:19.179Z,67.33
2019-03-01T14:36:07.807Z,67.27
2019-03-01T14:48:19.883Z,67.24
2019-03-01T14:51:10.597Z,66.54
2019-03-01T14:54:45.107Z,66.25
2019-03-01T14:57:54.692Z,66.72
2019-03-01T15:01:35.452Z,66.29
2019-03-01T15:05:05.337Z,66.09
2019-03-01T15:12:27.375Z,64.62
2019-03-01T15:22:03.760Z,64.72
2019-03-01T15:24:00.371Z,64.87
2019-03-01T15:24:36.192Z,63.53
2019-03-01T15:27:44.237Z,64.72
2019-03-01T15:33:33.854Z,65.41
2019-03-01T15:37:01.686Z,64.41
2019-03-01T15:39:47.522Z,64.80
2019-03-01T15:42:29.443Z,64.27
2019-03-01T15:45:28.490Z,64.28
2019-03-01T15:48:10.031Z,64.67
2019-03-01T15:50:59.051Z,65.01
2019-03-01T15:53:53.368Z,65.58
2019-03-01T15:56:08.303Z,65.73
2019-03-01T15:58:37.280Z,65.46
2019-03-01T16:01:11.774Z,65.49
2019-03-01T16:03:41.872Z,66.12
2019-03-01T16:06:17.260Z,65.11
2019-03-01T16:08:57.414Z,66.71
2019-03-01T16:11:24.323Z,66.36
2019-03-01T16:13:53.396Z,66.80
2019-03-01T16:16:22.507Z,67.35
2019-03-01T16:19:06.635Z,66.66
2019-03-01T16:21:43.013Z,67.00
2019-03-01T16:24:22.260Z,67.47
2019-03-01T16:26:53.056Z,67.62
2019-03-01T16:29:22.163Z,68.42
2019-03-01T16:31:51.166Z,68.92
2019-03-01T16:34:20.227Z,68.67
2019-03-01T16:36:51.475Z,69.23
2019-03-01T16:39:35.633Z,69.12
2019-03-01T16:42:04.728Z,68.76
2019-03-01T16:45:04.453Z,68.12
2019-03-01T16:48:02.091Z,68.13
2019-03-01T16:50:31.154Z,68.38
2019-03-01T16:53:04.337Z,68.31
2019-03-01T16:55:29.375Z,68.22
2019-03-01T16:58:06.827Z,67.84
2019-03-01T17:00:27.611Z,68.08
2019-03-01T17:03:05.383Z,67.69
2019-03-01T17:05:35.757Z,67.71
2019-03-01T17:08:05.555Z,67.70
2019-03-01T17:10:31.205Z,67.51
2019-03-01T17:12:59.965Z,67.17
2019-03-01T17:15:29.035Z,66.38
2019-03-01T17:17:58.013Z,65.96
2019-03-01T17:20:27.192Z,65.76
2019-03-01T17:23:03.102Z,65.51
2019-03-01T17:25:31.347Z,64.95
2019-03-01T17:29:18.741Z,65.35
2019-03-01T17:31:38.204Z,65.51
2019-03-01T17:34:10.419Z,65.73
2019-03-01T17:37:32.344Z,65.37
2019-03-01T17:40:25.514Z,64.71
2019-03-01T17:43:09.644Z,65.06
2019-03-01T17:46:02.776Z,65.38
2019-03-01T17:48:31.872Z,65.96
2019-03-01T17:55:53.605Z,65.11
2019-03-01T18:02:22.828Z,64.62
2019-03-01T18:05:00.103Z,65.49
2019-03-01T18:10:44.883Z,65.06
2019-03-01T18:13:15.086Z,64.83
2019-03-01T18:15:45.082Z,63.98
2019-03-01T18:18:12.883Z,63.67
2019-03-01T18:21:04.977Z,63.93
2019-03-01T18:24:20.291Z,64.28
2019-03-01T18:26:58.307Z,64.42
2019-03-01T18:34:42.805Z,65.54
2019-03-01T18:38:06.937Z,65.43
2019-03-01T18:40:51.752Z,65.73
2019-03-01T18:44:44.383Z,65.46
2019-03-01T18:47:20.657Z,65.54
2019-03-01T18:50:11.387Z,65.00
2019-03-01T18:52:53.208Z,64.44
2019-03-01T18:55:52.924Z,65.60
2019-03-01T18:58:25.050Z,65.06
2019-03-01T19:01:46.511Z,64.92
2019-03-01T19:04:31.387Z,64.88
2019-03-01T19:07:07.997Z,64.90
2019-03-01T19:09:59.183Z,64.77
2019-03-01T19:12:35.285Z,64.38
2019-03-01T19:15:25.460Z,64.11
2019-03-01T19:17:54.575Z,64.74
2019-03-01T19:20:25.456Z,65.01
2019-03-01T19:22:58.731Z,65.45
2019-03-01T19:25:35.748Z,65.32
2019-03-01T19:29:08.774Z,65.58
2019-03-01T19:31:47.396Z,63.45
2019-03-01T19:34:16.907Z,64.67
2019-03-01T19:36:57.381Z,64.66
2019-03-01T19:39:54.746Z,64.53
2019-03-01T19:43:01.045Z,65.16
2019-03-01T19:45:41.577Z,65.33
2019-03-01T19:48:13.496Z,65.24
2019-03-01T19:50:52.509Z,64.94
2019-03-01T19:53:25.436Z,65.04
2019-03-01T19:55:56.506Z,64.99
2019-03-01T19:58:29.889Z,64.86
2019-03-01T20:01:00.412Z,65.17
2019-03-01T20:03:29.938Z,65.42
2019-03-01T20:05:59.153Z,65.85
2019-03-01T20:08:31.724Z,65.56
2019-03-01T20:11:05.179Z,65.35
2019-03-01T20:13:35.501Z,65.19
2019-03-01T20:16:04.939Z,64.81
2019-03-01T20:18:41.766Z,65.61
2019-03-01T20:21:12.216Z,65.23
2019-03-01T20:23:41.508Z,65.24
2019-03-01T20:26:14.265Z,65.27
2019-03-01T20:28:51.616Z,65.06
2019-03-01T20:31:26.712Z,65.44
2019-03-01T20:34:16.174Z,65.49
2019-03-01T20:37:03.049Z,65.34
2019-03-01T20:39:17.452Z,65.55
2019-03-01T20:41:52.370Z,63.83
2019-03-01T20:44:21.721Z,64.93
2019-03-01T20:46:50.733Z,65.25
2019-03-01T20:49:20.078Z,65.30
2019-03-01T20:51:52.410Z,64.83
2019-03-01T20:54:33.104Z,64.76
2019-03-01T20:57:03.164Z,65.55
2019-03-01T20:59:46.735Z,66.17
2019-03-01T21:02:22.489Z,65.62
2019-03-01T21:04:54.668Z,65.65
2019-03-01T21:07:24.008Z,66.12
2019-03-01T21:09:59.207Z,66.07
2019-03-01T21:12:28.739Z,65.91
2019-03-01T21:14:58.690Z,65.85
2019-03-01T21:18:05.080Z,65.86
2019-03-01T21:21:25.636Z,65.76
2019-03-01T21:24:03.682Z,65.89
2019-03-01T21:26:32.716Z,65.65
2019-03-01T21:29:03.672Z,65.50
2019-03-01T21:31:35.403Z,64.29
2019-03-01T21:34:52.296Z,63.27
2019-03-01T21:37:10.225Z,65.04
2019-03-01T21:40:15.057Z,65.26
2019-03-01T21:42:39.503Z,65.62
2019-03-01T21:47:02.634Z,65.44
2019-03-01T21:49:51.906Z,66.29
2019-03-01T21:56:24.117Z,65.74
2019-03-01T21:59:04.965Z,66.47
2019-03-01T22:02:08.830Z,66.53
2019-03-01T22:17:00.589Z,67.47
2019-03-01T22:20:14.578Z,67.80
2019-03-01T22:22:34.178Z,68.31
2019-03-01T22:25:17.911Z,68.39
2019-03-01T22:27:44.756Z,68.70
2019-03-01T22:31:19.856Z,69.09
2019-03-01T22:34:01.000Z,69.12
2019-03-01T22:36:54.774Z,69.50
2019-03-01T22:42:57.631Z,67.76
2019-03-01T22:45:48.847Z,67.74
2019-03-01T22:48:52.974Z,68.81
2019-03-01T22:51:14.504Z,69.04
2019-03-01T22:53:43.173Z,69.29
2019-03-01T22:56:36.755Z,69.20
2019-03-01T22:59:08.700Z,69.17
2019-03-01T23:01:43.356Z,67.73
2019-03-01T23:04:13.002Z,68.93
2019-03-01T23:06:42.398Z,67.23
2019-03-01T23:09:18.897Z,68.97
2019-03-01T23:11:50.805Z,69.17
2019-03-01T23:14:20.018Z,68.86
2019-03-01T23:16:54.435Z,68.80
2019-03-01T23:19:22.843Z,69.17
2019-03-01T23:21:58.676Z,68.98
2019-03-01T23:24:31.644Z,69.56
2019-03-01T23:26:59.673Z,69.82
2019-03-01T23:30:03.558Z,69.92
2019-03-01T23:33:23.527Z,70.21
2019-03-01T23:35:53.921Z,70.32
2019-03-01T23:38:22.737Z,70.28
2019-03-01T23:40:51.808Z,69.27
2019-03-01T23:43:21.115Z,69.94
2019-03-01T23:45:53.737Z,70.04
2019-03-01T23:48:21.877Z,70.56
2019-03-01T23:50:51.172Z,70.94
2019-03-01T23:53:20.311Z,70.81
2019-03-01T23:55:50.982Z,70.50
2019-03-01T23:58:20.788Z,70.36
